createdAt,value
2022-09-26T00:01:42.837Z,14.89
2022-09-26T00:04:22.304Z,14.69
2022-09-26T00:06:52.408Z,14.78
2022-09-26T00:09:21.176Z,14.75
2022-09-26T00:11:51.670Z,14.90
2022-09-26T00:14:23.083Z,14.91
2022-09-26T00:16:51.824Z,14.99
2022-09-26T00:19:20.686Z,14.47
2022-09-26T00:21:49.307Z,14.43
2022-09-26T00:24:17.610Z,14.57
2022-09-26T00:26:46.007Z,14.55
2022-09-26T00:29:16.363Z,14.76
2022-09-26T00:31:47.613Z,14.36
2022-09-26T00:34:17.753Z,14.64
2022-09-26T00:36:46.219Z,14.64
2022-09-26T00:39:16.224Z,14.71
2022-09-26T00:41:45.657Z,14.81
2022-09-26T00:44:54.682Z,14.69
2022-09-26T00:47:40.499Z,14.75
2022-09-26T00:50:15.276Z,14.62
2022-09-26T00:52:47.496Z,14.71
2022-09-26T00:55:18.946Z,14.71
2022-09-26T00:57:53.419Z,14.66
2022-09-26T01:00:23.781Z,14.63
2022-09-26T01:02:54.422Z,14.39
2022-09-26T01:05:24.618Z,14.39
2022-09-26T01:07:55.049Z,14.50
2022-09-26T01:10:24.678Z,13.99
2022-09-26T01:12:53.574Z,14.12
2022-09-26T01:15:21.864Z,14.26
2022-09-26T01:17:50.775Z,14.40
2022-09-26T01:20:28.069Z,14.04
2022-09-26T01:23:20.978Z,14.17
2022-09-26T01:26:22.201Z,14.24
2022-09-26T01:29:16.586Z,14.36
2022-09-26T01:32:11.703Z,14.28
2022-09-26T01:34:50.979Z,12.91
2022-09-26T01:37:28.126Z,12.55
2022-09-26T01:40:09.000Z,12.84
2022-09-26T01:43:00.064Z,12.96
2022-09-26T01:45:44.573Z,13.55
2022-09-26T01:48:18.597Z,13.28
2022-09-26T01:50:51.699Z,13.49
2022-09-26T01:53:24.210Z,13.68
2022-09-26T01:55:57.870Z,13.60
2022-09-26T01:58:32.182Z,13.85
2022-09-26T02:01:03.530Z,13.94
2022-09-26T02:03:38.280Z,14.04
2022-09-26T02:06:11.337Z,13.90
2022-09-26T02:08:43.094Z,14.56
2022-09-26T02:11:14.308Z,14.18
2022-09-26T02:13:48.980Z,14.12
2022-09-26T02:16:22.744Z,14.20
2022-09-26T02:18:58.224Z,14.26
2022-09-26T02:21:26.806Z,13.98
2022-09-26T02:23:55.627Z,14.04
2022-09-26T02:26:25.289Z,13.90
2022-09-26T02:28:53.825Z,13.43
2022-09-26T02:31:26.077Z,12.57
2022-09-26T02:33:55.804Z,13.25
2022-09-26T02:36:25.216Z,13.15
2022-09-26T02:38:53.444Z,13.00
2022-09-26T02:41:30.366Z,13.35
2022-09-26T02:44:21.359Z,13.14
2022-09-26T02:47:11.415Z,13.23
2022-09-26T02:49:56.283Z,13.49
2022-09-26T02:52:37.490Z,13.78
2022-09-26T02:55:16.863Z,13.93
2022-09-26T02:57:52.473Z,13.94
2022-09-26T03:00:24.556Z,13.99
2022-09-26T03:02:58.980Z,13.94
2022-09-26T03:05:31.413Z,13.68
2022-09-26T03:08:04.979Z,13.87
2022-09-26T03:10:35.073Z,13.99
2022-09-26T03:13:08.182Z,13.99
2022-09-26T03:15:40.750Z,13.90
2022-09-26T03:18:13.372Z,13.93
2022-09-26T03:20:44.237Z,13.68
2022-09-26T03:23:12.423Z,13.24
2022-09-26T03:25:40.957Z,13.66
2022-09-26T03:28:10.244Z,13.96
2022-09-26T03:30:39.986Z,13.46
2022-09-26T03:33:09.228Z,13.89
2022-09-26T03:35:37.503Z,13.60
2022-09-26T03:38:10.117Z,13.16
2022-09-26T03:40:42.368Z,13.11
2022-09-26T03:43:11.229Z,12.27
2022-09-26T03:45:39.860Z,12.17
2022-09-26T03:48:08.123Z,12.13
2022-09-26T03:50:36.444Z,12.25
2022-09-26T03:53:06.347Z,11.86
2022-09-26T03:55:35.981Z,11.86
2022-09-26T03:58:04.230Z,12.07
2022-09-26T04:00:33.649Z,12.02
2022-09-26T04:03:03.253Z,11.98
2022-09-26T04:05:31.526Z,11.21
2022-09-26T04:08:03.135Z,11.32
2022-09-26T04:10:31.413Z,11.11
2022-09-26T04:13:01.310Z,11.18
2022-09-26T04:15:30.156Z,11.51
2022-09-26T04:17:58.492Z,10.99
2022-09-26T04:20:26.844Z,11.71
2022-09-26T04:22:55.257Z,11.72
2022-09-26T04:25:23.735Z,11.74
2022-09-26T04:27:52.056Z,11.01
2022-09-26T04:30:21.758Z,11.49
2022-09-26T04:32:49.995Z,11.53
2022-09-26T04:35:18.355Z,11.53
2022-09-26T04:37:47.398Z,11.71
2022-09-26T04:40:15.880Z,12.43
2022-09-26T04:42:44.181Z,12.45
2022-09-26T04:45:12.443Z,12.16
2022-09-26T04:47:42.124Z,12.67
2022-09-26T04:50:10.674Z,12.53
2022-09-26T04:52:38.885Z,12.77
2022-09-26T04:55:07.767Z,12.94
2022-09-26T04:57:38.186Z,12.71
2022-09-26T05:00:08.149Z,12.77
2022-09-26T05:02:36.451Z,13.17
2022-09-26T05:05:09.785Z,13.32
2022-09-26T05:07:41.358Z,13.49
2022-09-26T05:10:11.404Z,13.60
2022-09-26T05:12:40.444Z,13.34
2022-09-26T05:15:10.090Z,13.17
2022-09-26T05:17:38.755Z,13.55
2022-09-26T05:20:10.068Z,13.44
2022-09-26T05:22:38.863Z,13.56
2022-09-26T05:25:25.465Z,13.80
2022-09-26T05:27:54.387Z,14.04
2022-09-26T05:30:22.640Z,14.02
2022-09-26T05:32:50.855Z,14.08
2022-09-26T05:35:20.729Z,14.14
2022-09-26T05:37:49.001Z,14.09
2022-09-26T05:40:35.003Z,14.26
2022-09-26T05:43:04.215Z,14.47
2022-09-26T05:45:32.843Z,14.76
2022-09-26T05:48:01.119Z,14.58
2022-09-26T05:50:30.780Z,14.43
2022-09-26T05:52:59.261Z,14.61
2022-09-26T05:55:28.064Z,14.20
2022-09-26T05:57:59.101Z,13.93
2022-09-26T06:00:27.351Z,14.34
2022-09-26T06:02:57.017Z,15.56
2022-09-26T06:05:25.484Z,14.50
2022-09-26T06:07:55.212Z,15.04
2022-09-26T06:10:23.852Z,14.44
2022-09-26T06:12:52.061Z,14.90
2022-09-26T06:15:20.469Z,14.64
2022-09-26T06:17:48.753Z,15.45
2022-09-26T06:20:17.364Z,14.99
2022-09-26T06:22:45.546Z,15.51
2022-09-26T06:25:15.156Z,15.56
2022-09-26T06:27:44.033Z,15.70
2022-09-26T06:30:12.952Z,15.55
2022-09-26T06:32:41.507Z,14.20
2022-09-26T06:35:10.865Z,14.31
2022-09-26T06:37:39.188Z,14.72
2022-09-26T06:40:11.654Z,14.84
2022-09-26T06:42:41.975Z,15.73
2022-09-26T06:45:11.875Z,16.92
2022-09-26T06:47:40.296Z,17.89
2022-09-26T06:50:09.521Z,19.01
2022-09-26T06:52:37.802Z,19.28
2022-09-26T06:55:08.614Z,19.08
2022-09-26T06:57:42.977Z,19.68
2022-09-26T07:00:12.976Z,20.20
2022-09-26T07:02:51.232Z,19.32
2022-09-26T07:05:19.694Z,19.88
2022-09-26T07:07:49.179Z,20.78
2022-09-26T07:10:19.868Z,20.53
2022-09-26T07:12:50.091Z,21.11
2022-09-26T07:15:19.762Z,21.77
2022-09-26T07:17:49.337Z,21.57
2022-09-26T07:20:20.138Z,22.33
2022-09-26T07:22:48.597Z,22.61
2022-09-26T07:25:18.138Z,23.43
2022-09-26T07:27:52.696Z,22.18
2022-09-26T07:30:21.052Z,21.73
2022-09-26T07:32:49.271Z,22.02
2022-09-26T07:35:18.365Z,22.18
2022-09-26T07:37:46.828Z,23.29
2022-09-26T07:40:34.030Z,23.73
2022-09-26T07:43:21.307Z,24.51
2022-09-26T07:46:10.340Z,24.11
2022-09-26T07:48:55.870Z,23.73
2022-09-26T07:51:24.413Z,24.08
2022-09-26T07:53:52.656Z,24.39
2022-09-26T07:56:20.856Z,24.38
2022-09-26T07:58:50.742Z,24.54
2022-09-26T08:01:19.209Z,24.38
2022-09-26T08:03:48.769Z,23.51
2022-09-26T08:06:20.355Z,24.07
2022-09-26T08:08:50.377Z,24.46
2022-09-26T08:11:20.970Z,24.60
2022-09-26T08:13:51.266Z,24.14
2022-09-26T08:16:23.051Z,24.78
2022-09-26T08:18:52.196Z,25.18
2022-09-26T08:21:20.930Z,24.94
2022-09-26T08:23:49.630Z,25.06
2022-09-26T08:26:24.025Z,24.53
2022-09-26T08:28:54.590Z,25.95
2022-09-26T08:31:22.946Z,25.99
2022-09-26T08:33:51.258Z,25.74
2022-09-26T08:36:19.481Z,25.39
2022-09-26T08:38:50.862Z,25.72
2022-09-26T08:41:35.876Z,24.91
2022-09-26T08:44:17.034Z,25.50
2022-09-26T08:46:57.569Z,25.40
2022-09-26T08:49:41.756Z,25.79
2022-09-26T08:52:26.864Z,26.94
2022-09-26T08:54:56.765Z,26.82
2022-09-26T08:57:35.439Z,27.06
2022-09-26T09:00:12.015Z,27.23
2022-09-26T09:02:45.485Z,28.44
2022-09-26T09:05:19.232Z,29.15
2022-09-26T09:07:51.556Z,28.45
2022-09-26T09:10:35.006Z,28.56
2022-09-26T09:13:15.818Z,28.20
2022-09-26T09:16:02.761Z,28.08
2022-09-26T09:18:39.333Z,28.97
2022-09-26T09:21:20.041Z,29.89
2022-09-26T09:24:00.579Z,28.83
2022-09-26T09:30:03.369Z,29.60
2022-09-26T09:32:48.340Z,30.37
2022-09-26T09:35:19.391Z,29.96
2022-09-26T09:37:52.197Z,29.17
2022-09-26T09:40:29.418Z,29.41
2022-09-26T09:43:03.959Z,29.25
2022-09-26T09:45:37.554Z,28.41
2022-09-26T09:48:10.605Z,28.80
2022-09-26T09:50:50.492Z,28.68
2022-09-26T09:53:37.628Z,28.53
2022-09-26T09:56:14.682Z,28.54
2022-09-26T09:59:04.764Z,28.78
2022-09-26T10:01:37.054Z,29.16
2022-09-26T10:04:16.241Z,29.26
2022-09-26T10:06:47.307Z,29.42
2022-09-26T10:09:39.458Z,28.47
2022-09-26T10:12:17.198Z,29.39
2022-09-26T10:14:52.274Z,29.25
2022-09-26T10:17:22.142Z,29.76
2022-09-26T10:19:52.540Z,28.90
2022-09-26T10:22:29.369Z,28.81
2022-09-26T10:25:03.681Z,29.93
2022-09-26T10:27:38.345Z,29.55
2022-09-26T10:30:26.194Z,30.70
2022-09-26T10:32:57.296Z,31.06
2022-09-26T10:35:29.824Z,29.13
2022-09-26T10:38:03.298Z,27.12
2022-09-26T10:40:46.868Z,27.75
2022-09-26T10:43:38.112Z,28.71
2022-09-26T10:46:11.535Z,28.71
2022-09-26T10:48:47.259Z,29.66
2022-09-26T10:51:26.951Z,30.34
2022-09-26T10:54:04.174Z,29.53
2022-09-26T10:56:38.536Z,30.23
2022-09-26T10:59:09.136Z,31.19
2022-09-26T11:01:43.139Z,31.67
2022-09-26T11:04:39.416Z,30.28
2022-09-26T11:07:10.645Z,31.25
2022-09-26T11:09:39.721Z,30.79
2022-09-26T11:12:25.862Z,30.46
2022-09-26T11:14:59.916Z,30.35
2022-09-26T11:17:47.292Z,30.92
2022-09-26T11:20:28.718Z,31.81
2022-09-26T11:23:08.089Z,32.52
2022-09-26T11:25:50.127Z,32.41
2022-09-26T11:28:24.181Z,32.30
2022-09-26T11:30:57.434Z,32.39
2022-09-26T11:33:26.269Z,31.54
2022-09-26T11:36:11.057Z,31.79
2022-09-26T11:38:47.977Z,31.80
2022-09-26T11:41:39.208Z,33.35
2022-09-26T11:44:22.171Z,33.57
2022-09-26T11:47:09.280Z,32.50
2022-09-26T11:49:54.075Z,32.11
2022-09-26T11:52:39.824Z,32.15
2022-09-26T11:55:24.379Z,32.10
2022-09-26T11:58:03.565Z,31.52
2022-09-26T12:00:42.057Z,32.32
2022-09-26T12:03:51.340Z,31.94
2022-09-26T12:06:32.014Z,31.20
2022-09-26T12:09:32.912Z,30.96
2022-09-26T12:12:12.615Z,31.51
2022-09-26T12:14:54.422Z,29.45
2022-09-26T12:17:36.425Z,29.69
2022-09-26T12:20:21.641Z,28.84
2022-09-26T12:22:59.353Z,28.43
2022-09-26T12:25:39.446Z,28.83
2022-09-26T12:28:45.282Z,28.57
2022-09-26T12:31:21.947Z,28.87
2022-09-26T12:34:07.914Z,29.13
2022-09-26T12:36:51.571Z,29.88
2022-09-26T12:39:48.957Z,28.68
2022-09-26T12:42:31.289Z,28.17
2022-09-26T12:45:31.380Z,28.16
2022-09-26T12:48:19.127Z,28.48
2022-09-26T12:50:58.913Z,28.42
2022-09-26T12:53:52.895Z,28.81
2022-09-26T12:56:34.008Z,29.68
2022-09-26T12:59:18.282Z,28.44
2022-09-26T13:02:05.205Z,28.20
2022-09-26T13:05:06.246Z,28.20
2022-09-26T13:07:48.563Z,28.21
2022-09-26T13:10:32.353Z,28.18
2022-09-26T13:13:36.816Z,27.64
2022-09-26T13:16:21.760Z,27.82
2022-09-26T13:18:57.826Z,27.96
2022-09-26T13:21:41.392Z,28.51
2022-09-26T13:24:18.866Z,28.15
2022-09-26T13:26:52.315Z,27.38
2022-09-26T13:29:26.655Z,26.82
2022-09-26T13:32:05.215Z,26.54
2022-09-26T13:34:40.190Z,26.82
2022-09-26T13:37:15.753Z,27.09
2022-09-26T13:39:51.486Z,27.33
2022-09-26T13:42:25.644Z,27.77
2022-09-26T13:45:04.350Z,27.91
2022-09-26T13:47:42.330Z,28.29
2022-09-26T13:50:23.454Z,28.45
2022-09-26T13:53:05.696Z,28.41
2022-09-26T13:55:34.583Z,28.95
2022-09-26T13:58:07.359Z,29.00
2022-09-26T14:00:54.746Z,28.95
2022-09-26T14:03:40.489Z,28.86
2022-09-26T14:06:37.242Z,29.07
2022-09-26T14:09:25.788Z,28.92
2022-09-26T14:12:22.467Z,28.41
2022-09-26T14:15:16.371Z,27.66
2022-09-26T14:18:13.668Z,28.28
2022-09-26T14:20:59.287Z,27.99
2022-09-26T14:23:47.993Z,28.05
2022-09-26T14:26:21.119Z,28.58
2022-09-26T14:28:54.672Z,28.82
2022-09-26T14:31:41.400Z,28.49
2022-09-26T14:34:23.688Z,28.74
2022-09-26T14:36:54.074Z,28.42
2022-09-26T14:39:40.953Z,27.97
2022-09-26T14:42:12.129Z,27.92
2022-09-26T14:44:52.509Z,27.62
2022-09-26T14:47:21.217Z,27.35
2022-09-26T14:49:59.592Z,27.45
2022-09-26T14:52:28.332Z,27.22
2022-09-26T14:55:02.258Z,27.06
2022-09-26T14:57:34.331Z,26.37
2022-09-26T15:00:03.913Z,26.06
2022-09-26T15:02:41.058Z,26.55
2022-09-26T15:05:26.036Z,26.73
2022-09-26T15:07:57.071Z,26.10
2022-09-26T15:10:40.283Z,25.45
2022-09-26T15:13:28.309Z,25.15
2022-09-26T15:16:08.275Z,24.37
2022-09-26T15:18:40.180Z,24.50
2022-09-26T15:21:20.976Z,24.43
2022-09-26T15:23:52.148Z,24.08
2022-09-26T15:26:24.818Z,24.01
2022-09-26T15:28:54.584Z,24.07
2022-09-26T15:31:26.673Z,23.71
2022-09-26T15:34:00.413Z,23.80
2022-09-26T15:36:34.909Z,24.18
2022-09-26T15:39:11.690Z,24.34
2022-09-26T15:42:04.743Z,23.82
2022-09-26T15:44:35.527Z,23.92
2022-09-26T15:47:27.145Z,23.95
2022-09-26T15:50:06.295Z,24.04
2022-09-26T15:52:35.520Z,24.18
2022-09-26T15:55:06.419Z,23.81
2022-09-26T15:57:38.161Z,23.97
2022-09-26T16:00:07.240Z,23.86
2022-09-26T16:02:37.343Z,23.64
2022-09-26T16:05:12.702Z,23.17
2022-09-26T16:07:42.638Z,22.72
2022-09-26T16:10:22.524Z,22.62
2022-09-26T16:12:52.439Z,21.87
2022-09-26T16:15:29.937Z,22.28
2022-09-26T16:17:59.967Z,22.12
2022-09-26T16:20:30.893Z,22.74
2022-09-26T16:23:04.399Z,22.47
2022-09-26T16:25:35.688Z,22.94
2022-09-26T16:28:41.956Z,22.96
2022-09-26T16:31:23.356Z,22.98
2022-09-26T16:33:53.705Z,23.06
2022-09-26T16:36:24.753Z,23.04
2022-09-26T16:38:55.304Z,22.99
2022-09-26T16:41:48.825Z,22.55
2022-09-26T16:44:33.611Z,22.48
2022-09-26T16:47:05.660Z,22.39
2022-09-26T16:49:46.895Z,22.28
2022-09-26T16:52:25.312Z,22.46
2022-09-26T16:54:54.107Z,22.41
2022-09-26T16:57:25.308Z,22.31
2022-09-26T17:00:15.478Z,22.44
2022-09-26T17:02:43.016Z,22.23
2022-09-26T17:05:16.997Z,22.13
2022-09-26T17:07:45.932Z,22.04
2022-09-26T17:10:14.476Z,22.22
2022-09-26T17:12:43.081Z,22.10
2022-09-26T17:15:21.073Z,22.23
2022-09-26T17:17:53.728Z,22.11
2022-09-26T17:20:23.767Z,22.17
2022-09-26T17:22:52.220Z,21.61
2022-09-26T17:25:20.532Z,22.02
2022-09-26T17:27:55.197Z,21.98
2022-09-26T17:30:25.051Z,21.98
2022-09-26T17:32:54.549Z,22.13
2022-09-26T17:35:26.493Z,22.13
2022-09-26T17:37:55.689Z,21.87
2022-09-26T17:40:25.499Z,21.61
2022-09-26T17:42:56.670Z,21.59
2022-09-26T17:45:30.404Z,21.60
2022-09-26T17:48:00.474Z,21.36
2022-09-26T17:50:31.439Z,21.71
2022-09-26T17:53:02.426Z,21.79
2022-09-26T17:55:31.418Z,21.80
2022-09-26T17:57:59.856Z,21.87
2022-09-26T18:00:38.978Z,21.90
2022-09-26T18:03:14.514Z,21.51
2022-09-26T18:05:45.758Z,21.46
2022-09-26T18:08:20.452Z,21.35
2022-09-26T18:10:51.672Z,21.62
2022-09-26T18:13:25.461Z,21.04
2022-09-26T18:15:57.998Z,20.71
2022-09-26T18:18:29.339Z,20.59
2022-09-26T18:21:03.108Z,20.46
2022-09-26T18:23:40.986Z,20.80
2022-09-26T18:26:15.116Z,20.66
2022-09-26T18:28:45.304Z,20.60
2022-09-26T18:31:15.664Z,20.59
2022-09-26T18:33:44.408Z,20.69
2022-09-26T18:36:13.536Z,20.41
2022-09-26T18:38:42.415Z,21.12
2022-09-26T18:41:13.000Z,21.22
2022-09-26T18:43:43.284Z,21.04
2022-09-26T18:46:17.172Z,20.79
2022-09-26T18:48:47.479Z,20.56
2022-09-26T18:51:16.327Z,20.34
2022-09-26T18:53:45.151Z,20.30
2022-09-26T18:56:31.211Z,20.61
2022-09-26T18:59:00.108Z,20.82
2022-09-26T19:01:33.271Z,20.09
2022-09-26T19:04:04.134Z,19.89
2022-09-26T19:06:36.497Z,20.07
2022-09-26T19:09:07.913Z,19.94
2022-09-26T19:11:36.721Z,19.96
2022-09-26T19:14:14.038Z,20.22
2022-09-26T19:16:45.090Z,20.20
2022-09-26T19:19:13.813Z,20.32
2022-09-26T19:21:44.577Z,20.10
2022-09-26T19:24:21.227Z,20.49
2022-09-26T19:26:52.954Z,20.19
2022-09-26T19:29:30.029Z,20.31
2022-09-26T19:32:00.568Z,19.99
2022-09-26T19:34:32.763Z,20.22
2022-09-26T19:37:03.283Z,20.26
2022-09-26T19:39:31.891Z,20.39
2022-09-26T19:42:00.098Z,20.52
2022-09-26T19:44:28.415Z,20.36
2022-09-26T19:46:59.378Z,20.59
2022-09-26T19:49:30.145Z,20.29
2022-09-26T19:52:01.107Z,20.31
2022-09-26T19:54:30.158Z,20.49
2022-09-26T19:56:58.906Z,20.55
2022-09-26T19:59:27.769Z,20.33
2022-09-26T20:01:56.378Z,20.27
2022-09-26T20:04:24.736Z,20.33
2022-09-26T20:06:54.593Z,20.46
2022-09-26T20:09:22.852Z,20.31
2022-09-26T20:11:51.110Z,19.86
2022-09-26T20:14:25.296Z,20.13
2022-09-26T20:16:59.583Z,19.30
2022-09-26T20:19:36.648Z,19.87
2022-09-26T20:22:09.064Z,19.87
2022-09-26T20:24:39.835Z,20.04
2022-09-26T20:27:14.173Z,20.16
2022-09-26T20:29:59.941Z,19.93
2022-09-26T20:32:28.260Z,20.03
2022-09-26T20:35:00.849Z,19.90
2022-09-26T20:37:32.612Z,20.02
2022-09-26T20:40:01.431Z,19.63
2022-09-26T20:42:37.177Z,19.43
2022-09-26T20:45:06.210Z,19.46
2022-09-26T20:47:37.544Z,19.03
2022-09-26T20:50:06.487Z,19.44
2022-09-26T20:52:36.112Z,19.48
2022-09-26T20:55:04.501Z,19.02
2022-09-26T20:57:32.744Z,19.46
2022-09-26T21:00:01.013Z,19.27
2022-09-26T21:02:33.416Z,19.53
2022-09-26T21:05:02.448Z,19.74
2022-09-26T21:07:33.210Z,19.57
2022-09-26T21:10:03.003Z,19.38
2022-09-26T21:12:31.258Z,19.11
2022-09-26T21:14:59.529Z,19.32
2022-09-26T21:17:29.968Z,18.70
2022-09-26T21:19:58.396Z,19.05
2022-09-26T21:22:28.466Z,18.99
2022-09-26T21:24:56.965Z,18.31
2022-09-26T21:27:26.723Z,18.26
2022-09-26T21:29:54.922Z,18.88
2022-09-26T21:32:24.465Z,19.08
2022-09-26T21:34:59.391Z,18.39
2022-09-26T21:37:27.769Z,18.27
2022-09-26T21:39:56.184Z,18.37
2022-09-26T21:42:27.546Z,18.19
2022-09-26T21:45:00.471Z,18.57
2022-09-26T21:47:29.515Z,18.80
2022-09-26T21:49:58.076Z,18.99
2022-09-26T21:52:31.240Z,19.29
2022-09-26T21:55:01.203Z,19.07
2022-09-26T21:57:35.193Z,19.24
2022-09-26T22:00:07.155Z,19.34
2022-09-26T22:02:35.516Z,19.40
2022-09-26T22:05:03.825Z,19.37
2022-09-26T22:07:32.089Z,19.46
2022-09-26T22:10:00.375Z,19.34
2022-09-26T22:12:30.476Z,19.56
2022-09-26T22:14:59.425Z,19.04
2022-09-26T22:17:27.945Z,18.78
2022-09-26T22:19:56.526Z,18.45
2022-09-26T22:22:24.916Z,18.53
2022-09-26T22:24:54.066Z,17.18
2022-09-26T22:27:22.602Z,18.74
2022-09-26T22:29:52.252Z,18.98
2022-09-26T22:32:20.470Z,18.79
2022-09-26T22:34:49.300Z,19.05
2022-09-26T22:37:17.590Z,19.35
2022-09-26T22:39:45.793Z,19.60
2022-09-26T22:42:14.093Z,19.63
2022-09-26T22:44:42.407Z,19.08
2022-09-26T22:47:12.161Z,19.09
2022-09-26T22:49:40.376Z,19.13
2022-09-26T22:52:08.599Z,18.53
2022-09-26T22:54:36.896Z,18.76
2022-09-26T22:57:05.317Z,19.01
2022-09-26T22:59:33.600Z,18.92
2022-09-26T23:02:01.948Z,18.94
2022-09-26T23:04:45.428Z,18.96
2022-09-26T23:07:14.195Z,18.60
2022-09-26T23:09:42.472Z,18.99
2022-09-26T23:12:11.905Z,18.54
2022-09-26T23:14:40.224Z,18.69
2022-09-26T23:17:08.525Z,18.75
2022-09-26T23:19:38.341Z,17.94
2022-09-26T23:22:06.694Z,19.00
2022-09-26T23:24:34.915Z,19.12
2022-09-26T23:27:03.227Z,19.21
2022-09-26T23:29:31.585Z,18.90
2022-09-26T23:31:59.795Z,18.85
2022-09-26T23:34:28.008Z,18.57
2022-09-26T23:36:57.733Z,18.29
2022-09-26T23:39:25.943Z,19.12
2022-09-26T23:41:54.233Z,19.12
2022-09-26T23:44:22.477Z,19.45
2022-09-26T23:46:50.731Z,18.99
2022-09-26T23:49:18.992Z,19.18
2022-09-26T23:51:47.920Z,19.29
2022-09-26T23:54:17.550Z,19.42
2022-09-26T23:56:45.759Z,19.37
2022-09-26T23:59:14.112Z,19.35
